Time;durP1;ratioP1;P1;durP2;ratioP2;P2;SDS_P1;SDS_P2;PMS_P1;PMS_P2;Temp;Humidity;BMP_temperature;BMP_pressure;BME280_temperature;BME280_humidity;BME280_pressure;Samples;Min_cycle;Max_cycle;Signal;HPM_P1;HPM_P2
2021/03/02 00:00:11;;;;;;;15.15;12.25;;;5.00;95.80;;;;;;4924816;29;20234;-81
2021/03/02 00:02:40;;;;;;;15.00;11.18;;;5.00;95.90;;;;;;4924342;29;20303;-81
2021/03/02 00:05:09;;;;;;;16.55;13.98;;;5.00;96.00;;;;;;4925537;29;20230;-82
2021/03/02 00:07:36;;;;;;;14.80;11.82;;;4.90;96.00;;;;;;4935468;29;20210;-82
2021/03/02 00:10:04;;;;;;;15.95;12.13;;;4.80;96.20;;;;;;4925786;29;20238;-81
2021/03/02 00:12:31;;;;;;;14.25;10.73;;;4.80;96.30;;;;;;4925125;29;20214;-82
2021/03/02 00:14:57;;;;;;;15.32;12.18;;;4.70;96.50;;;;;;4925063;29;20206;-82
2021/03/02 00:17:31;;;;;;;14.35;12.15;;;4.70;96.60;;;;;;4923924;29;20211;-81
2021/03/02 00:20:04;;;;;;;14.00;11.68;;;4.70;96.70;;;;;;4923692;29;20226;-81
2021/03/02 00:22:34;;;;;;;14.98;10.68;;;4.70;96.80;;;;;;4923509;29;20217;-80
2021/03/02 00:25:05;;;;;;;14.80;11.77;;;4.70;97.00;;;;;;4924591;29;20698;-81
2021/03/02 00:27:34;;;;;;;16.63;13.23;;;4.70;97.10;;;;;;4924227;29;20698;-80
2021/03/02 00:30:01;;;;;;;17.88;13.10;;;4.70;97.10;;;;;;4923880;29;20234;-80
2021/03/02 00:32:28;;;;;;;17.60;12.13;;;4.60;97.10;;;;;;4924004;29;20211;-81
2021/03/02 00:34:54;;;;;;;12.98;11.50;;;4.60;97.20;;;;;;4923598;29;20217;-81
2021/03/02 00:37:20;;;;;;;13.88;11.07;;;4.60;97.30;;;;;;4924137;29;20546;-81
2021/03/02 00:39:47;;;;;;;16.17;13.95;;;4.60;97.50;;;;;;4924050;29;20912;-81
2021/03/02 00:42:13;;;;;;;15.23;11.50;;;4.60;97.70;;;;;;4923906;29;20211;-78
2021/03/02 00:44:39;;;;;;;17.42;12.68;;;4.60;97.70;;;;;;4924811;29;20241;-81
2021/03/02 00:47:06;;;;;;;14.75;12.65;;;4.50;97.70;;;;;;4924531;29;20220;-81
2021/03/02 00:49:33;;;;;;;16.75;12.15;;;4.50;97.90;;;;;;4923756;29;20241;-81
2021/03/02 00:51:59;;;;;;;14.38;12.30;;;4.50;98.00;;;;;;4924024;29;20218;-81
2021/03/02 00:54:25;;;;;;;16.73;11.75;;;4.40;98.00;;;;;;4930908;29;20213;-78
2021/03/02 00:56:52;;;;;;;13.63;11.23;;;4.40;98.10;;;;;;4926176;29;20232;-81
2021/03/02 00:59:19;;;;;;;16.33;12.25;;;4.40;98.20;;;;;;4924070;29;20238;-81
2021/03/02 01:01:45;;;;;;;16.77;11.20;;;4.40;98.20;;;;;;4924599;29;20286;-80
2021/03/02 01:04:11;;;;;;;14.88;13.07;;;4.40;98.20;;;;;;4924419;29;20236;-81
2021/03/02 01:06:37;;;;;;;14.30;10.68;;;4.40;98.30;;;;;;4923548;29;20288;-80
2021/03/02 01:09:07;;;;;;;11.98;9.43;;;4.30;98.50;;;;;;4922344;29;20285;-81
2021/03/02 01:11:34;;;;;;;12.00;10.75;;;4.20;98.80;;;;;;4921889;29;20210;-81
2021/03/02 01:14:01;;;;;;;15.13;10.20;;;4.20;99.00;;;;;;4922584;29;20214;-81
2021/03/02 01:16:27;;;;;;;14.40;11.57;;;4.20;99.10;;;;;;4922612;29;20249;-82
2021/03/02 01:18:53;;;;;;;13.45;10.63;;;4.30;99.30;;;;;;4921674;29;20234;-81
2021/03/02 01:21:19;;;;;;;14.80;10.00;;;4.20;99.30;;;;;;4922830;29;20214;-80
2021/03/02 01:23:46;;;;;;;15.20;10.45;;;4.20;99.30;;;;;;4922934;29;20210;-80
2021/03/02 01:26:12;;;;;;;11.20;8.05;;;4.20;99.40;;;;;;4921602;29;20230;-80
2021/03/02 01:28:38;;;;;;;10.68;7.97;;;4.20;99.40;;;;;;4922270;29;20227;-81
2021/03/02 01:31:05;;;;;;;11.35;8.75;;;4.20;99.50;;;;;;4921926;29;20216;-81
2021/03/02 01:33:32;;;;;;;8.27;7.47;;;4.10;99.50;;;;;;4921985;29;20210;-80
2021/03/02 01:35:58;;;;;;;9.60;8.63;;;4.10;99.70;;;;;;4922663;29;20202;-81
2021/03/02 01:38:24;;;;;;;8.38;7.50;;;4.10;99.90;;;;;;4921682;29;20238;-81
2021/03/02 01:40:50;;;;;;;9.25;7.55;;;4.10;99.90;;;;;;4923335;29;20214;-79
2021/03/02 01:43:17;;;;;;;12.00;8.95;;;4.10;99.90;;;;;;4931958;29;20209;-81
2021/03/02 01:45:43;;;;;;;10.18;9.00;;;4.10;99.90;;;;;;4923683;29;20230;-81
2021/03/02 01:48:10;;;;;;;12.20;10.30;;;4.10;99.90;;;;;;4923081;29;20214;-82
2021/03/02 01:50:37;;;;;;;11.50;8.68;;;4.00;99.90;;;;;;4923991;29;20214;-82
2021/03/02 01:53:03;;;;;;;11.55;10.13;;;4.00;99.90;;;;;;4923303;29;20222;-82
2021/03/02 01:55:30;;;;;;;10.77;8.75;;;4.00;99.90;;;;;;4923256;29;20242;-81
2021/03/02 01:57:56;;;;;;;10.57;8.27;;;4.00;99.90;;;;;;4922522;29;20214;-80
2021/03/02 02:00:27;;;;;;;11.15;7.80;;;4.00;99.90;;;;;;4922891;29;20231;-81
2021/03/02 02:03:01;;;;;;;14.48;9.52;;;4.00;99.90;;;;;;4922267;29;20214;-80
2021/03/02 02:05:33;;;;;;;8.27;7.47;;;4.00;99.90;;;;;;4922789;29;20238;-82
2021/03/02 02:08:05;;;;;;;9.55;8.57;;;4.00;99.90;;;;;;4923243;29;20260;-81
2021/03/02 02:10:37;;;;;;;11.25;8.48;;;4.00;99.90;;;;;;4926334;29;20222;-82
2021/03/02 02:13:08;;;;;;;14.15;8.52;;;4.00;99.90;;;;;;4925888;29;20229;-82
2021/03/02 02:15:38;;;;;;;12.20;8.52;;;3.90;99.90;;;;;;4926167;29;20274;-81
2021/03/02 02:18:08;;;;;;;8.13;7.25;;;3.90;99.90;;;;;;4925029;29;20214;-80
2021/03/02 02:20:45;;;;;;;9.23;8.27;;;3.90;99.90;;;;;;4926144;29;20210;-81
2021/03/02 02:23:31;;;;;;;16.02;8.93;;;3.90;99.90;;;;;;4925652;29;20218;-82
2021/03/02 02:26:06;;;;;;;12.75;8.90;;;3.80;99.90;;;;;;4925803;29;20232;-82
2021/03/02 02:28:36;;;;;;;8.95;8.13;;;3.80;99.90;;;;;;4927110;29;20241;-78
2021/03/02 02:31:04;;;;;;;11.48;8.35;;;3.80;99.90;;;;;;4933732;29;20212;-82
2021/03/02 02:33:33;;;;;;;9.60;7.88;;;3.70;99.90;;;;;;4927179;29;20218;-82
2021/03/02 02:36:02;;;;;;;11.38;9.18;;;3.70;99.90;;;;;;4926790;29;20238;-80
2021/03/02 02:38:29;;;;;;;9.48;8.35;;;3.70;99.90;;;;;;4924979;29;20245;-82
2021/03/02 02:40:58;;;;;;;9.90;7.93;;;3.70;99.90;;;;;;4926844;29;20211;-82
2021/03/02 02:43:26;;;;;;;9.38;7.57;;;3.60;99.90;;;;;;4925999;29;20214;-82
2021/03/02 02:45:54;;;;;;;9.90;8.25;;;3.60;99.90;;;;;;4925477;29;20240;-82
2021/03/02 02:48:21;;;;;;;11.50;8.90;;;3.60;99.90;;;;;;4924834;29;20289;-82
2021/03/02 02:50:50;;;;;;;9.13;7.80;;;3.60;99.90;;;;;;4924517;29;20674;-79
2021/03/02 02:53:18;;;;;;;11.60;8.30;;;3.60;99.90;;;;;;4924220;29;20574;-82
2021/03/02 02:55:51;;;;;;;9.02;7.50;;;3.50;99.90;;;;;;4924491;29;20230;-82
2021/03/02 02:58:22;;;;;;;9.63;8.07;;;3.50;99.90;;;;;;4924030;29;20219;-81
2021/03/02 03:00:50;;;;;;;9.35;8.45;;;3.50;99.90;;;;;;4922906;29;20685;-82
2021/03/02 03:03:22;;;;;;;12.63;8.43;;;3.50;99.90;;;;;;4923340;29;20214;-82
2021/03/02 03:05:52;;;;;;;8.15;6.80;;;3.50;99.90;;;;;;4923083;29;20427;-81
2021/03/02 03:08:21;;;;;;;9.68;8.15;;;3.50;99.90;;;;;;4922037;29;20222;-80
2021/03/02 03:10:49;;;;;;;9.02;7.78;;;3.40;99.90;;;;;;4923426;29;20242;-79
2021/03/02 03:13:19;;;;;;;9.45;7.18;;;3.40;99.90;;;;;;4914795;29;20211;-80
2021/03/02 03:15:47;;;;;;;13.38;9.30;;;3.40;99.90;;;;;;4923398;29;20862;-81
2021/03/02 03:18:14;;;;;;;13.38;8.70;;;3.40;99.90;;;;;;4933759;29;20220;-81
2021/03/02 03:20:41;;;;;;;10.73;8.57;;;3.30;99.90;;;;;;4924321;29;20210;-81
2021/03/02 03:23:07;;;;;;;10.23;7.88;;;3.30;99.90;;;;;;4924644;29;20673;-81
2021/03/02 03:25:35;;;;;;;12.00;7.70;;;3.30;99.90;;;;;;4925249;29;20230;-81
2021/03/02 03:28:04;;;;;;;9.65;7.55;;;3.30;99.90;;;;;;4924145;29;20224;-81
2021/03/02 03:30:33;;;;;;;9.98;7.88;;;3.30;99.90;;;;;;4924548;29;20220;-81
2021/03/02 03:33:02;;;;;;;9.43;7.78;;;3.20;99.90;;;;;;4924238;29;20216;-82
2021/03/02 03:35:29;;;;;;;9.05;8.25;;;3.10;99.90;;;;;;4924155;29;20219;-81
2021/03/02 03:37:56;;;;;;;10.82;9.80;;;3.00;99.90;;;;;;4924688;29;20552;-81
2021/03/02 03:40:23;;;;;;;8.52;7.82;;;3.00;99.90;;;;;;4923713;29;20228;-82
2021/03/02 03:42:49;;;;;;;9.93;7.20;;;3.00;99.90;;;;;;4923317;29;20214;-81
2021/03/02 03:45:16;;;;;;;10.25;7.38;;;3.00;99.90;;;;;;4923626;29;20233;-81
2021/03/02 03:47:43;;;;;;;7.18;6.47;;;3.00;99.90;;;;;;4923784;29;20226;-81
2021/03/02 03:50:10;;;;;;;17.33;10.45;;;2.90;99.90;;;;;;4922414;29;20237;-82
2021/03/02 03:52:39;;;;;;;10.15;7.32;;;3.00;99.90;;;;;;4922347;29;20231;-80
2021/03/02 03:55:08;;;;;;;12.27;8.82;;;2.90;99.90;;;;;;4922819;29;20220;-81
2021/03/02 03:57:35;;;;;;;11.55;9.75;;;2.90;99.90;;;;;;4922748;29;20223;-81
2021/03/02 04:00:03;;;;;;;8.70;7.85;;;2.90;99.90;;;;;;4921950;29;20237;-82
2021/03/02 04:02:30;;;;;;;9.65;8.70;;;2.90;99.90;;;;;;4922303;29;20298;-81
2021/03/02 04:04:57;;;;;;;11.45;8.98;;;2.80;99.90;;;;;;4931826;29;20233;-80
2021/03/02 04:07:24;;;;;;;10.32;8.52;;;2.80;99.90;;;;;;4924155;29;20216;-81
2021/03/02 04:09:50;;;;;;;9.82;8.15;;;2.80;99.90;;;;;;4923410;29;20233;-82
2021/03/02 04:12:18;;;;;;;11.85;10.57;;;2.80;99.90;;;;;;4923347;29;20268;-80
2021/03/02 04:14:44;;;;;;;8.85;7.90;;;2.80;99.90;;;;;;4922765;29;20240;-81
2021/03/02 04:17:12;;;;;;;14.30;8.68;;;2.80;99.90;;;;;;4923314;29;20233;-81
2021/03/02 04:19:40;;;;;;;9.85;8.27;;;2.80;99.90;;;;;;4922805;29;20234;-82
2021/03/02 04:22:06;;;;;;;13.95;9.15;;;2.80;99.90;;;;;;4922601;29;20223;-81
2021/03/02 04:24:32;;;;;;;11.80;8.52;;;2.80;99.90;;;;;;4923003;29;20213;-81
2021/03/02 04:26:58;;;;;;;10.40;8.75;;;2.80;99.90;;;;;;4922007;29;20227;-81
2021/03/02 04:29:25;;;;;;;13.13;8.77;;;2.80;99.90;;;;;;4922279;29;20788;-81
2021/03/02 04:31:51;;;;;;;8.77;7.88;;;2.80;99.90;;;;;;4921734;29;20210;-81
2021/03/02 04:34:18;;;;;;;9.80;8.77;;;2.80;99.90;;;;;;4922188;29;20237;-81
2021/03/02 04:36:44;;;;;;;10.85;8.50;;;2.70;99.90;;;;;;4921219;29;20215;-81
2021/03/02 04:39:10;;;;;;;11.52;8.05;;;2.70;99.90;;;;;;4922017;29;20232;-81
2021/03/02 04:41:36;;;;;;;11.48;9.05;;;2.70;99.90;;;;;;4921522;29;20210;-82
2021/03/02 04:44:03;;;;;;;13.38;9.48;;;2.70;99.90;;;;;;4922784;29;20214;-82
2021/03/02 04:46:30;;;;;;;11.50;9.10;;;2.60;99.90;;;;;;4922518;29;20239;-80
2021/03/02 04:48:56;;;;;;;9.45;8.55;;;2.60;99.90;;;;;;4921767;29;20265;-82
2021/03/02 04:51:23;;;;;;;11.23;7.90;;;2.60;99.90;;;;;;4926977;29;20217;-78
2021/03/02 04:53:49;;;;;;;10.63;9.05;;;2.60;99.90;;;;;;4928051;29;20202;-82
2021/03/02 04:56:15;;;;;;;9.20;8.38;;;2.60;99.90;;;;;;4922491;29;20217;-82
2021/03/02 04:58:41;;;;;;;10.35;7.53;;;2.60;99.90;;;;;;4923129;29;20664;-81
2021/03/02 05:01:08;;;;;;;11.93;8.25;;;2.60;99.90;;;;;;4923382;29;20220;-81
2021/03/02 05:03:35;;;;;;;10.02;8.57;;;2.60;99.90;;;;;;4922551;29;20213;-82
2021/03/02 05:06:01;;;;;;;10.35;8.40;;;2.60;99.90;;;;;;4922288;29;20660;-82
2021/03/02 05:08:27;;;;;;;9.05;7.45;;;2.50;99.90;;;;;;4922109;29;20235;-82
2021/03/02 05:10:54;;;;;;;10.75;8.90;;;2.50;99.90;;;;;;4921879;29;20795;-82
2021/03/02 05:13:20;;;;;;;10.85;8.95;;;2.50;99.90;;;;;;4921610;29;20276;-81
2021/03/02 05:15:46;;;;;;;10.80;9.13;;;2.50;99.90;;;;;;4921991;29;20592;-80
2021/03/02 05:18:12;;;;;;;13.55;8.23;;;2.40;99.90;;;;;;4921259;29;20217;-82
2021/03/02 05:20:39;;;;;;;10.30;9.30;;;2.40;99.90;;;;;;4921588;29;20273;-82
2021/03/02 05:23:06;;;;;;;13.80;9.77;;;2.40;99.90;;;;;;4921604;29;20221;-82
2021/03/02 05:25:32;;;;;;;12.52;9.25;;;2.40;99.90;;;;;;4921696;29;20228;-81
2021/03/02 05:27:58;;;;;;;11.45;10.23;;;2.30;99.90;;;;;;4921518;29;20220;-81
2021/03/02 05:30:25;;;;;;;11.90;8.93;;;2.30;99.90;;;;;;4921622;29;20598;-82
2021/03/02 05:32:51;;;;;;;10.57;9.57;;;2.30;99.90;;;;;;4921358;29;20291;-82
2021/03/02 05:35:18;;;;;;;11.73;10.63;;;2.30;99.90;;;;;;4921357;29;20588;-82
2021/03/02 05:37:45;;;;;;;12.07;9.02;;;2.30;99.90;;;;;;4921554;29;20594;-82
2021/03/02 05:40:12;;;;;;;17.42;10.50;;;2.20;99.90;;;;;;4930848;29;20731;-80
2021/03/02 05:42:39;;;;;;;14.38;9.50;;;2.20;99.90;;;;;;4922338;29;20222;-82
2021/03/02 05:45:06;;;;;;;12.48;8.45;;;2.20;99.90;;;;;;4925893;29;20236;-82
2021/03/02 05:47:33;;;;;;;11.75;9.60;;;2.20;99.90;;;;;;4925873;29;20214;-81
2021/03/02 05:50:01;;;;;;;15.68;9.50;;;2.30;99.90;;;;;;4925046;29;20647;-82
2021/03/02 05:52:29;;;;;;;12.13;8.82;;;2.20;99.90;;;;;;4925636;29;20227;-81
2021/03/02 05:54:57;;;;;;;13.52;9.57;;;2.20;99.90;;;;;;4925739;29;20207;-81
2021/03/02 05:57:23;;;;;;;12.30;8.48;;;2.20;99.90;;;;;;4925278;29;20658;-82
2021/03/02 05:59:51;;;;;;;12.27;9.63;;;2.20;99.90;;;;;;4924986;29;20730;-80
2021/03/02 06:02:17;;;;;;;16.92;11.75;;;2.20;99.90;;;;;;4924836;29;20243;-82
2021/03/02 06:04:43;;;;;;;11.18;8.35;;;2.20;99.90;;;;;;4924891;29;20270;-81
2021/03/02 06:07:09;;;;;;;16.88;11.95;;;2.20;99.90;;;;;;4925029;29;20271;-82
2021/03/02 06:09:36;;;;;;;11.07;8.70;;;2.20;99.90;;;;;;4925276;29;20251;-82
2021/03/02 06:12:04;;;;;;;12.80;10.75;;;2.20;99.90;;;;;;4923892;29;20215;-82
2021/03/02 06:14:33;;;;;;;15.63;10.52;;;2.20;99.90;;;;;;4924597;29;20275;-82
2021/03/02 06:17:00;;;;;;;15.27;9.27;;;2.20;99.90;;;;;;4924291;29;20222;-82
2021/03/02 06:19:37;;;;;;;20.42;12.85;;;2.20;99.90;;;;;;4924646;29;20220;-82
2021/03/02 06:22:04;;;;;;;15.43;9.70;;;2.20;99.90;;;;;;4924456;29;20268;-82
2021/03/02 06:24:38;;;;;;;11.73;9.48;;;2.20;99.90;;;;;;4928485;29;20215;-82
2021/03/02 06:27:09;;;;;;;12.15;10.30;;;2.20;99.90;;;;;;4935522;29;20208;-82
2021/03/02 06:29:36;;;;;;;15.23;10.70;;;2.20;99.90;;;;;;4929844;29;20234;-82
2021/03/02 06:32:03;;;;;;;11.90;9.68;;;2.20;99.90;;;;;;4928161;29;20212;-81
2021/03/02 06:34:29;;;;;;;11.65;10.10;;;2.20;99.90;;;;;;4926225;29;20216;-82
2021/03/02 06:37:00;;;;;;;14.45;11.18;;;2.20;99.90;;;;;;4924865;29;20220;-82
2021/03/02 06:39:31;;;;;;;17.55;11.52;;;2.30;99.90;;;;;;4924590;29;20237;-83
2021/03/02 06:42:16;;;;;;;14.15;10.77;;;2.30;99.90;;;;;;4924515;29;20215;-82
2021/03/02 06:44:43;;;;;;;16.05;10.25;;;2.40;99.90;;;;;;4925006;29;20689;-82
2021/03/02 06:47:09;;;;;;;16.77;12.02;;;2.40;99.90;;;;;;4924789;29;20214;-81
2021/03/02 06:49:40;;;;;;;17.77;13.30;;;2.50;99.90;;;;;;4924736;29;20233;-82
2021/03/02 06:52:17;;;;;;;11.82;10.48;;;2.50;99.90;;;;;;4923579;29;20235;-82
2021/03/02 06:54:45;;;;;;;22.20;11.88;;;2.60;99.90;;;;;;4923455;29;20233;-82
2021/03/02 06:57:12;;;;;;;14.43;11.15;;;2.60;99.90;;;;;;4924576;29;20212;-81
2021/03/02 06:59:41;;;;;;;15.75;9.10;;;2.70;99.90;;;;;;4925154;29;20327;-82
2021/03/02 07:02:08;;;;;;;12.70;9.80;;;2.80;99.90;;;;;;4924346;29;20301;-82
2021/03/02 07:04:34;;;;;;;12.68;11.27;;;2.90;99.90;;;;;;4924520;29;20269;-81
2021/03/02 07:07:06;;;;;;;13.73;11.27;;;2.90;99.90;;;;;;4924257;29;20233;-82
2021/03/02 07:09:32;;;;;;;17.17;12.82;;;3.00;99.90;;;;;;4924587;29;20237;-81
2021/03/02 07:11:59;;;;;;;12.80;10.30;;;3.10;99.90;;;;;;4925839;29;20226;-80
2021/03/02 07:14:28;;;;;;;15.60;11.40;;;3.20;99.90;;;;;;4926128;29;20212;-78
2021/03/02 07:16:56;;;;;;;14.85;9.80;;;3.30;99.90;;;;;;4926974;29;20224;-80
2021/03/02 07:19:24;;;;;;;18.50;11.27;;;3.40;99.90;;;;;;4925889;29;20580;-80
2021/03/02 07:21:54;;;;;;;16.30;12.40;;;3.60;99.90;;;;;;4926159;29;20210;-79
2021/03/02 07:24:26;;;;;;;23.52;12.75;;;3.70;99.90;;;;;;4924939;29;20206;-81
2021/03/02 07:26:54;;;;;;;18.25;12.73;;;3.80;99.90;;;;;;4924677;29;20256;-81
2021/03/02 07:29:21;;;;;;;18.75;10.30;;;3.90;99.90;;;;;;4924572;29;20230;-81
2021/03/02 07:31:50;;;;;;;13.93;11.18;;;4.10;99.90;;;;;;4924308;29;20214;-81
2021/03/02 07:34:16;;;;;;;14.32;10.98;;;4.20;99.90;;;;;;4925296;29;20222;-81
2021/03/02 07:36:44;;;;;;;22.52;13.38;;;4.30;99.90;;;;;;4925143;29;20213;-80
2021/03/02 07:39:11;;;;;;;15.18;11.32;;;4.40;99.90;;;;;;4925269;29;20238;-82
2021/03/02 07:41:38;;;;;;;14.57;12.40;;;4.50;99.90;;;;;;4932058;29;20201;-81
2021/03/02 07:44:05;;;;;;;13.63;12.18;;;4.60;99.90;;;;;;4928456;29;20202;-79
2021/03/02 07:46:49;;;;;;;13.73;10.98;;;4.70;99.90;;;;;;4931395;29;20226;-81
2021/03/02 07:49:33;;;;;;;15.07;11.07;;;4.80;99.90;;;;;;4936448;29;20225;-81
2021/03/02 07:52:19;;;;;;;13.10;10.68;;;4.90;99.90;;;;;;4932401;29;20298;-79
2021/03/02 07:54:46;;;;;;;13.82;11.35;;;5.10;99.90;;;;;;4928515;29;20206;-80
2021/03/02 07:57:26;;;;;;;14.48;11.48;;;5.20;99.90;;;;;;4933179;29;20223;-80
2021/03/02 08:00:22;;;;;;;11.73;10.50;;;5.30;99.90;;;;;;4941469;29;20226;-80
2021/03/02 08:03:20;;;;;;;12.25;9.95;;;5.40;99.90;;;;;;4949105;29;20316;-82
2021/03/02 08:05:46;;;;;;;16.85;10.63;;;5.50;99.90;;;;;;4865227;29;20232;-82
2021/03/02 08:08:35;;;;;;;11.90;10.60;;;5.60;99.90;;;;;;4921387;29;20217;-80
2021/03/02 08:11:23;;;;;;;13.63;9.90;;;5.60;99.90;;;;;;4943655;29;20245;-79
2021/03/02 08:13:49;;;;;;;16.67;11.80;;;5.70;99.90;;;;;;4943527;29;20206;-79
2021/03/02 08:16:35;;;;;;;15.13;10.95;;;5.90;99.90;;;;;;4943572;29;20221;-80
2021/03/02 08:19:34;;;;;;;13.45;10.80;;;5.90;99.90;;;;;;4943393;29;20740;-80
2021/03/02 08:22:00;;;;;;;12.07;9.35;;;6.10;99.90;;;;;;4944361;29;20213;-81
2021/03/02 08:24:49;;;;;;;13.73;11.45;;;6.10;99.90;;;;;;4944324;29;20210;-81
2021/03/02 08:27:15;;;;;;;10.70;9.63;;;6.30;99.90;;;;;;4945033;29;20213;-79
2021/03/02 08:29:48;;;;;;;15.45;11.73;;;6.40;99.90;;;;;;4953756;29;20233;-80
2021/03/02 08:32:17;;;;;;;12.23;10.60;;;6.50;99.90;;;;;;4940577;29;20206;-80
2021/03/02 08:34:45;;;;;;;13.30;9.70;;;6.60;99.90;;;;;;4940562;29;20206;-81
2021/03/02 08:37:11;;;;;;;14.98;10.88;;;6.70;99.90;;;;;;4941398;29;20216;-81
2021/03/02 08:39:39;;;;;;;13.55;10.55;;;6.90;99.90;;;;;;4942391;29;20890;-80
2021/03/02 08:42:08;;;;;;;14.70;12.13;;;7.00;99.90;;;;;;4941996;29;20706;-82
2021/03/02 08:44:36;;;;;;;13.77;11.65;;;7.10;99.90;;;;;;4941682;29;20217;-81
2021/03/02 08:47:03;;;;;;;12.93;10.98;;;7.20;99.90;;;;;;4941576;29;20221;-82
2021/03/02 08:49:32;;;;;;;18.65;10.80;;;7.30;99.80;;;;;;4945611;29;20339;-78
2021/03/02 08:52:02;;;;;;;14.68;12.57;;;7.40;99.60;;;;;;4947146;29;20214;-82
2021/03/02 08:54:29;;;;;;;13.70;11.77;;;7.40;99.40;;;;;;4945113;29;20199;-80
2021/03/02 09:03:52;;;;;;;;;;;;;;;;;;;;;
2021/03/02 09:09:32;;;;;;;16.15;14.45;;;7.90;98.40;;;;;;4933300;29;20785;-80
2021/03/02 09:12:07;;;;;;;13.35;11.90;;;8.10;98.30;;;;;;4940625;29;20808;-80
2021/03/02 09:14:49;;;;;;;13.90;11.18;;;8.20;97.90;;;;;;4941689;29;20696;-80
2021/03/02 09:17:47;;;;;;;15.38;12.50;;;8.20;97.90;;;;;;4934847;29;20666;-83
2021/03/02 09:21:05;;;;;;;18.88;12.70;;;8.30;97.80;;;;;;4931023;29;20779;-81
2021/03/02 09:57:25;;;;;;;14.23;12.73;;;9.40;96.60;;;;;;4864163;29;20222;-82
2021/03/02 10:06:52;;;;;;;14.27;12.97;;;9.90;95.90;;;;;;4854304;29;20577;-80
2021/03/02 10:09:52;;;;;;;13.77;12.30;;;10.10;95.00;;;;;;4872185;29;20487;-81
2021/03/02 10:12:31;;;;;;;15.00;11.57;;;10.20;94.80;;;;;;4911377;29;20463;-82
2021/03/02 10:15:37;;;;;;;15.30;13.73;;;10.30;94.30;;;;;;4934063;29;20525;-84
2021/03/02 10:58:37;;;;;;;13.10;11.87;;;13.30;90.10;;;;;;4774748;30;20466;-81
2021/03/02 11:01:24;;;;;;;;;;;;;;;;;;;;;
2021/03/02 11:04:01;;;;;;;;;;;;;;;;;;;;;
2021/03/02 11:06:32;;;;;;;14.30;12.90;;;14.20;85.50;;;;;;4920468;29;20498;-82
2021/03/02 11:08:59;;;;;;;16.80;12.43;;;14.40;84.20;;;;;;4921530;29;20483;-82
2021/03/02 11:11:40;;;;;;;15.40;12.80;;;14.80;84.80;;;;;;4921915;29;20463;-83
2021/03/02 11:14:09;;;;;;;12.23;11.10;;;15.30;82.20;;;;;;4930819;29;20459;-83
2021/03/02 11:16:50;;;;;;;16.50;12.43;;;16.10;81.00;;;;;;4923053;29;20450;-83
2021/03/02 12:12:30;;;;;;;11.57;10.47;;;25.80;42.30;;;;;;4896940;29;20471;-82
2021/03/02 12:14:56;;;;;;;12.53;11.33;;;26.20;41.00;;;;;;4921825;29;20584;-81
2021/03/02 12:17:22;;;;;;;13.97;12.30;;;26.50;40.20;;;;;;4922435;29;20498;-81
2021/03/02 12:19:49;;;;;;;11.23;10.27;;;26.80;39.30;;;;;;4923187;29;20554;-82
2021/03/02 12:22:15;;;;;;;11.80;10.33;;;27.00;38.50;;;;;;4922671;29;20945;-82
2021/03/02 12:24:41;;;;;;;12.17;10.97;;;27.10;37.90;;;;;;4923297;29;20461;-82
2021/03/02 12:27:08;;;;;;;12.80;11.70;;;27.20;37.80;;;;;;4921720;29;20469;-82
2021/03/02 12:29:35;;;;;;;11.60;10.47;;;27.30;37.30;;;;;;4918040;29;20482;-81
2021/03/02 12:32:01;;;;;;;14.40;12.90;;;27.60;37.00;;;;;;4939576;29;20466;-82
2021/03/02 12:34:28;;;;;;;12.70;11.47;;;28.00;35.60;;;;;;4926419;29;20454;-82
2021/03/02 12:36:55;;;;;;;12.97;11.67;;;28.20;35.00;;;;;;4921565;29;20495;-84
2021/03/02 12:39:22;;;;;;;12.97;11.67;;;28.40;34.70;;;;;;4941625;29;20480;-81
2021/03/02 12:41:48;;;;;;;13.47;12.17;;;28.90;35.00;;;;;;4942199;29;20460;-82
2021/03/02 12:44:15;;;;;;;12.80;11.40;;;29.40;34.40;;;;;;4922396;29;20517;-81
2021/03/02 12:46:42;;;;;;;12.60;10.80;;;29.70;34.00;;;;;;4922139;29;20955;-82
2021/03/02 12:49:08;;;;;;;11.93;10.77;;;29.90;32.40;;;;;;4921277;29;20485;-82
2021/03/02 12:51:34;;;;;;;12.80;11.53;;;30.20;32.60;;;;;;4922315;29;20466;-82
2021/03/02 12:54:00;;;;;;;12.17;10.97;;;30.40;31.50;;;;;;4920963;29;20463;-83
2021/03/02 12:56:27;;;;;;;14.10;12.80;;;30.50;30.50;;;;;;4922491;29;20589;-81
2021/03/02 12:58:54;;;;;;;13.47;12.10;;;30.20;30.60;;;;;;4922812;29;20474;-82
2021/03/02 13:01:20;;;;;;;11.83;10.73;;;29.90;31.20;;;;;;4922982;29;20470;-79
2021/03/02 13:03:47;;;;;;;13.27;12.17;;;30.00;30.90;;;;;;4922575;29;20455;-82
2021/03/02 13:06:13;;;;;;;13.47;12.07;;;30.20;31.00;;;;;;4922593;29;20458;-82
2021/03/02 13:08:44;;;;;;;12.20;10.93;;;30.50;29.90;;;;;;4921935;29;20992;-81
2021/03/02 13:11:12;;;;;;;13.87;11.30;;;30.60;30.00;;;;;;4920980;29;20453;-82
2021/03/02 13:13:39;;;;;;;12.73;11.43;;;30.10;30.20;;;;;;4921221;29;20498;-83
2021/03/02 13:16:06;;;;;;;12.70;11.60;;;30.30;30.00;;;;;;4922396;29;20502;-82
2021/03/02 13:18:33;;;;;;;12.50;11.30;;;30.20;29.10;;;;;;4922972;29;20850;-82
2021/03/02 13:21:01;;;;;;;13.30;12.20;;;29.90;29.70;;;;;;4920192;29;21047;-83
2021/03/02 13:23:28;;;;;;;13.83;12.00;;;29.60;29.80;;;;;;4921768;29;20952;-83
2021/03/02 13:25:55;;;;;;;14.00;12.07;;;29.80;30.00;;;;;;4922911;29;20970;-82
2021/03/02 13:28:25;;;;;;;13.20;11.33;;;30.20;29.70;;;;;;4924682;29;20548;-81
2021/03/02 13:30:53;;;;;;;13.33;11.97;;;30.40;28.80;;;;;;4926437;29;20473;-85
2021/03/02 13:33:24;;;;;;;13.57;12.37;;;30.50;28.50;;;;;;4922893;29;20463;-85
2021/03/02 13:35:51;;;;;;;13.47;12.03;;;30.80;29.20;;;;;;4923176;29;20494;-84
2021/03/02 13:38:19;;;;;;;12.73;11.53;;;30.70;28.50;;;;;;4921254;29;20471;-82
2021/03/02 13:40:46;;;;;;;12.80;11.27;;;30.90;29.50;;;;;;4921124;29;20456;-83
2021/03/02 13:43:13;;;;;;;13.47;12.10;;;31.00;28.50;;;;;;4919441;29;20459;-83
2021/03/02 13:45:40;;;;;;;13.13;11.90;;;31.20;28.70;;;;;;4919860;29;20458;-83
2021/03/02 13:48:07;;;;;;;13.80;12.40;;;31.40;28.40;;;;;;4920476;29;20978;-83
2021/03/02 13:50:34;;;;;;;14.07;12.67;;;31.30;28.40;;;;;;4922464;29;20463;-83
2021/03/02 13:53:04;;;;;;;13.10;11.70;;;31.60;28.30;;;;;;4921688;29;20472;-83
2021/03/02 13:55:31;;;;;;;12.10;11.00;;;31.90;28.20;;;;;;4921997;29;20473;-83
2021/03/02 13:57:58;;;;;;;13.87;12.47;;;32.30;27.30;;;;;;4921050;29;20483;-84
2021/03/02 14:00:25;;;;;;;13.50;12.30;;;32.60;27.40;;;;;;4920057;29;20476;-83
2021/03/02 14:02:54;;;;;;;12.90;11.60;;;33.00;27.10;;;;;;4920466;29;20458;-85
2021/03/02 14:08:14;;;;;;;12.30;11.10;;;32.80;25.90;;;;;;4884346;29;20442;-83
2021/03/02 14:10:43;;;;;;;16.57;14.33;;;32.30;26.30;;;;;;4921977;29;20487;-82
2021/03/02 14:13:12;;;;;;;14.57;13.10;;;31.30;27.00;;;;;;4921568;29;20466;-82
2021/03/02 14:15:39;;;;;;;13.13;11.77;;;31.10;27.30;;;;;;4923197;29;20971;-83
2021/03/02 14:18:07;;;;;;;14.17;12.67;;;31.00;27.70;;;;;;4926806;29;21153;-84
2021/03/02 14:20:34;;;;;;;13.40;12.00;;;30.70;27.60;;;;;;4926523;29;20469;-84
2021/03/02 14:23:00;;;;;;;14.73;12.90;;;30.50;28.00;;;;;;4927082;29;20458;-85
2021/03/02 14:25:27;;;;;;;15.10;11.87;;;30.50;27.90;;;;;;4925369;29;20466;-83
2021/03/02 14:27:54;;;;;;;19.63;13.27;;;30.40;28.10;;;;;;4926583;29;20454;-84
2021/03/02 14:30:22;;;;;;;14.80;12.80;;;29.90;28.10;;;;;;4926981;29;20479;-84
2021/03/02 14:32:48;;;;;;;17.27;14.47;;;29.20;28.60;;;;;;4926828;29;20465;-83
2021/03/02 14:38:22;;;;;;;14.60;13.10;;;28.30;29.10;;;;;;4832937;29;20467;-84
2021/03/02 14:40:49;;;;;;;23.00;14.60;;;27.30;30.20;;;;;;4910565;29;21029;-83
2021/03/02 14:43:21;;;;;;;17.23;14.13;;;26.50;30.00;;;;;;4925185;29;20460;-82
2021/03/02 16:11:54;;;;;;;15.37;11.97;;;18.70;41.70;;;;;;4918167;29;20489;-84
2021/03/02 16:27:36;;;;;;;;;;;;;;;;;;;;;
2021/03/02 16:38:11;;;;;;;;;;;;;;;;;;;;;
2021/03/02 17:01:12;;;;;;;17.73;11.03;;;14.80;47.10;;;;;;4826940;29;20458;-79
2021/03/02 17:03:56;;;;;;;15.73;10.60;;;14.60;47.60;;;;;;4891737;29;20466;-83
2021/03/02 17:06:25;;;;;;;13.60;10.27;;;14.40;47.90;;;;;;4908624;29;20507;-82
2021/03/02 17:11:30;;;;;;;14.93;9.87;;;14.10;48.50;;;;;;4982649;23;20513;-80
2021/03/02 17:13:56;;;;;;;12.53;9.43;;;14.00;48.70;;;;;;4927466;29;20446;-80
2021/03/02 17:16:22;;;;;;;12.50;10.13;;;13.80;48.90;;;;;;4930444;29;20490;-80
2021/03/02 17:18:54;;;;;;;17.77;11.47;;;13.70;49.00;;;;;;4926612;29;20507;-83
2021/03/02 17:21:20;;;;;;;17.33;10.53;;;13.60;49.30;;;;;;4928163;29;20462;-81
2021/03/02 17:23:47;;;;;;;15.07;11.70;;;13.50;49.60;;;;;;4928316;29;20443;-81
2021/03/02 17:26:13;;;;;;;13.63;11.10;;;13.30;49.70;;;;;;4934672;29;20464;-83
2021/03/02 17:28:39;;;;;;;18.20;12.37;;;13.20;49.90;;;;;;4934461;29;20473;-81
2021/03/02 17:31:06;;;;;;;15.50;12.63;;;13.10;50.40;;;;;;4930156;29;20982;-81
2021/03/02 17:33:32;;;;;;;13.60;11.07;;;13.00;51.20;;;;;;4927000;29;20458;-81
2021/03/02 17:39:00;;;;;;;13.07;10.97;;;12.80;51.90;;;;;;4890212;29;20921;-83